sensor_id;sensor_type;location;lat;lon;timestamp;P1;durP1;ratioP1;P2;durP2;ratioP2
44026;SDS011;29696;55.698;37.460;2023-02-25T00:01:56;22.07;;;13.03;;
44026;SDS011;29696;55.698;37.460;2023-02-25T00:04:22;20.67;;;13.20;;
44026;SDS011;29696;55.698;37.460;2023-02-25T00:06:51;21.70;;;14.60;;
44026;SDS011;29696;55.698;37.460;2023-02-25T00:09:18;23.37;;;14.27;;
44026;SDS011;29696;55.698;37.460;2023-02-25T00:11:44;20.07;;;13.17;;
44026;SDS011;29696;55.698;37.460;2023-02-25T00:14:10;19.00;;;12.23;;
44026;SDS011;29696;55.698;37.460;2023-02-25T00:16:37;19.77;;;13.60;;
44026;SDS011;29696;55.698;37.460;2023-02-25T00:19:03;18.83;;;13.27;;
44026;SDS011;29696;55.698;37.460;2023-02-25T00:21:29;22.23;;;13.83;;
44026;SDS011;29696;55.698;37.460;2023-02-25T00:23:56;20.23;;;12.57;;
44026;SDS011;29696;55.698;37.460;2023-02-25T00:26:22;19.63;;;14.17;;
44026;SDS011;29696;55.698;37.460;2023-02-25T00:28:49;19.90;;;12.87;;
44026;SDS011;29696;55.698;37.460;2023-02-25T00:31:17;21.37;;;13.73;;
44026;SDS011;29696;55.698;37.460;2023-02-25T00:33:46;17.87;;;13.47;;
44026;SDS011;29696;55.698;37.460;2023-02-25T00:36:14;25.57;;;13.07;;
44026;SDS011;29696;55.698;37.460;2023-02-25T00:38:46;17.93;;;13.33;;
44026;SDS011;29696;55.698;37.460;2023-02-25T00:41:15;24.37;;;12.83;;
44026;SDS011;29696;55.698;37.460;2023-02-25T00:43:53;19.80;;;13.10;;
44026;SDS011;29696;55.698;37.460;2023-02-25T00:46:23;21.93;;;13.37;;
44026;SDS011;29696;55.698;37.460;2023-02-25T00:48:51;22.00;;;14.60;;
44026;SDS011;29696;55.698;37.460;2023-02-25T00:51:19;21.53;;;13.00;;
44026;SDS011;29696;55.698;37.460;2023-02-25T00:53:49;19.17;;;13.43;;
44026;SDS011;29696;55.698;37.460;2023-02-25T00:56:16;17.23;;;11.90;;
44026;SDS011;29696;55.698;37.460;2023-02-25T00:58:45;23.20;;;14.90;;
44026;SDS011;29696;55.698;37.460;2023-02-25T01:01:18;17.77;;;11.70;;
44026;SDS011;29696;55.698;37.460;2023-02-25T01:03:52;23.10;;;13.93;;
44026;SDS011;29696;55.698;37.460;2023-02-25T01:06:21;19.47;;;14.97;;
44026;SDS011;29696;55.698;37.460;2023-02-25T01:08:49;20.40;;;13.73;;
44026;SDS011;29696;55.698;37.460;2023-02-25T01:11:16;17.43;;;13.17;;
44026;SDS011;29696;55.698;37.460;2023-02-25T01:13:52;18.17;;;13.03;;
44026;SDS011;29696;55.698;37.460;2023-02-25T01:16:20;17.57;;;12.17;;
44026;SDS011;29696;55.698;37.460;2023-02-25T01:18:50;16.77;;;12.23;;
44026;SDS011;29696;55.698;37.460;2023-02-25T01:21:21;16.93;;;10.97;;
44026;SDS011;29696;55.698;37.460;2023-02-25T01:23:55;18.80;;;12.33;;
44026;SDS011;29696;55.698;37.460;2023-02-25T01:26:24;22.20;;;12.40;;
44026;SDS011;29696;55.698;37.460;2023-02-25T01:28:52;23.07;;;12.97;;
44026;SDS011;29696;55.698;37.460;2023-02-25T01:31:19;21.13;;;13.53;;
44026;SDS011;29696;55.698;37.460;2023-02-25T01:33:58;17.60;;;12.03;;
44026;SDS011;29696;55.698;37.460;2023-02-25T01:36:26;18.73;;;13.30;;
44026;SDS011;29696;55.698;37.460;2023-02-25T01:38:53;19.20;;;13.13;;
44026;SDS011;29696;55.698;37.460;2023-02-25T01:41:24;16.53;;;11.70;;
44026;SDS011;29696;55.698;37.460;2023-02-25T01:44:05;22.00;;;11.87;;
44026;SDS011;29696;55.698;37.460;2023-02-25T01:54:57;16.87;;;11.77;;
44026;SDS011;29696;55.698;37.460;2023-02-25T01:57:24;20.23;;;13.47;;
44026;SDS011;29696;55.698;37.460;2023-02-25T01:59:51;19.50;;;12.23;;
44026;SDS011;29696;55.698;37.460;2023-02-25T02:02:19;20.90;;;13.17;;
44026;SDS011;29696;55.698;37.460;2023-02-25T02:04:48;19.80;;;12.60;;
44026;SDS011;29696;55.698;37.460;2023-02-25T02:07:20;22.87;;;13.63;;
44026;SDS011;29696;55.698;37.460;2023-02-25T02:09:47;23.33;;;13.97;;
44026;SDS011;29696;55.698;37.460;2023-02-25T02:12:27;20.90;;;13.70;;
44026;SDS011;29696;55.698;37.460;2023-02-25T02:14:59;19.57;;;12.20;;
44026;SDS011;29696;55.698;37.460;2023-02-25T02:20:26;18.43;;;13.60;;
44026;SDS011;29696;55.698;37.460;2023-02-25T02:29:21;17.43;;;12.30;;
44026;SDS011;29696;55.698;37.460;2023-02-25T02:47:44;13.15;;;10.63;;
44026;SDS011;29696;55.698;37.460;2023-02-25T02:50:37;15.33;;;10.07;;
44026;SDS011;29696;55.698;37.460;2023-02-25T02:53:07;18.60;;;11.97;;
44026;SDS011;29696;55.698;37.460;2023-02-25T02:55:39;18.60;;;12.10;;
44026;SDS011;29696;55.698;37.460;2023-02-25T02:58:10;16.23;;;12.13;;
44026;SDS011;29696;55.698;37.460;2023-02-25T03:00:42;17.83;;;11.67;;
44026;SDS011;29696;55.698;37.460;2023-02-25T03:03:16;19.80;;;12.73;;
44026;SDS011;29696;55.698;37.460;2023-02-25T03:05:48;20.90;;;13.15;;
44026;SDS011;29696;55.698;37.460;2023-02-25T03:08:19;17.27;;;11.60;;
44026;SDS011;29696;55.698;37.460;2023-02-25T03:10:51;19.30;;;11.57;;
44026;SDS011;29696;55.698;37.460;2023-02-25T03:13:20;19.50;;;11.87;;
44026;SDS011;29696;55.698;37.460;2023-02-25T03:15:47;15.03;;;11.00;;
44026;SDS011;29696;55.698;37.460;2023-02-25T03:18:17;16.37;;;11.50;;
44026;SDS011;29696;55.698;37.460;2023-02-25T03:20:50;18.00;;;12.53;;
44026;SDS011;29696;55.698;37.460;2023-02-25T03:23:20;20.37;;;12.23;;
44026;SDS011;29696;55.698;37.460;2023-02-25T03:26:03;17.47;;;11.13;;
44026;SDS011;29696;55.698;37.460;2023-02-25T03:29:00;17.80;;;11.90;;
44026;SDS011;29696;55.698;37.460;2023-02-25T03:31:28;18.33;;;12.23;;
44026;SDS011;29696;55.698;37.460;2023-02-25T03:34:11;16.98;;;12.10;;
44026;SDS011;29696;55.698;37.460;2023-02-25T03:36:47;18.47;;;12.77;;
44026;SDS011;29696;55.698;37.460;2023-02-25T03:39:24;17.80;;;12.00;;
44026;SDS011;29696;55.698;37.460;2023-02-25T03:41:54;14.33;;;10.30;;
44026;SDS011;29696;55.698;37.460;2023-02-25T03:44:25;18.30;;;12.80;;
44026;SDS011;29696;55.698;37.460;2023-02-25T03:46:56;13.17;;;11.27;;
44026;SDS011;29696;55.698;37.460;2023-02-25T03:49:25;17.33;;;11.33;;
44026;SDS011;29696;55.698;37.460;2023-02-25T03:51:59;17.05;;;11.98;;
44026;SDS011;29696;55.698;37.460;2023-02-25T03:54:29;15.07;;;10.23;;
44026;SDS011;29696;55.698;37.460;2023-02-25T03:56:55;15.77;;;11.33;;
44026;SDS011;29696;55.698;37.460;2023-02-25T03:59:22;18.33;;;13.50;;
44026;SDS011;29696;55.698;37.460;2023-02-25T04:01:51;19.57;;;12.27;;
44026;SDS011;29696;55.698;37.460;2023-02-25T04:04:19;16.83;;;11.30;;
44026;SDS011;29696;55.698;37.460;2023-02-25T04:06:45;14.77;;;10.17;;
44026;SDS011;29696;55.698;37.460;2023-02-25T04:09:13;15.87;;;10.70;;
44026;SDS011;29696;55.698;37.460;2023-02-25T04:11:40;17.03;;;12.13;;
44026;SDS011;29696;55.698;37.460;2023-02-25T04:14:07;15.80;;;10.93;;
44026;SDS011;29696;55.698;37.460;2023-02-25T04:16:33;18.50;;;12.53;;
44026;SDS011;29696;55.698;37.460;2023-02-25T04:19:01;16.87;;;11.13;;
44026;SDS011;29696;55.698;37.460;2023-02-25T04:24:15;17.30;;;11.60;;
44026;SDS011;29696;55.698;37.460;2023-02-25T04:26:41;17.97;;;11.87;;
44026;SDS011;29696;55.698;37.460;2023-02-25T04:29:07;15.60;;;11.60;;
44026;SDS011;29696;55.698;37.460;2023-02-25T04:31:34;16.13;;;11.37;;
44026;SDS011;29696;55.698;37.460;2023-02-25T04:34:00;17.23;;;10.80;;
44026;SDS011;29696;55.698;37.460;2023-02-25T04:36:30;14.57;;;10.50;;
44026;SDS011;29696;55.698;37.460;2023-02-25T04:38:59;15.37;;;10.87;;
44026;SDS011;29696;55.698;37.460;2023-02-25T04:41:29;17.90;;;11.37;;
44026;SDS011;29696;55.698;37.460;2023-02-25T04:43:57;13.30;;;10.43;;
44026;SDS011;29696;55.698;37.460;2023-02-25T04:46:24;15.77;;;10.93;;
44026;SDS011;29696;55.698;37.460;2023-02-25T04:48:50;19.63;;;11.80;;
44026;SDS011;29696;55.698;37.460;2023-02-25T04:51:17;16.37;;;12.90;;
44026;SDS011;29696;55.698;37.460;2023-02-25T04:53:43;15.90;;;11.83;;
44026;SDS011;29696;55.698;37.460;2023-02-25T04:56:11;17.00;;;11.73;;
44026;SDS011;29696;55.698;37.460;2023-02-25T04:58:37;17.00;;;12.47;;
44026;SDS011;29696;55.698;37.460;2023-02-25T05:01:06;15.07;;;10.97;;
44026;SDS011;29696;55.698;37.460;2023-02-25T05:03:33;18.10;;;11.83;;
44026;SDS011;29696;55.698;37.460;2023-02-25T05:06:01;14.43;;;10.10;;
44026;SDS011;29696;55.698;37.460;2023-02-25T05:08:27;22.27;;;12.80;;
44026;SDS011;29696;55.698;37.460;2023-02-25T05:10:54;17.23;;;13.03;;
44026;SDS011;29696;55.698;37.460;2023-02-25T05:13:20;17.97;;;10.87;;
44026;SDS011;29696;55.698;37.460;2023-02-25T05:15:47;24.63;;;11.67;;
44026;SDS011;29696;55.698;37.460;2023-02-25T05:18:13;18.10;;;11.50;;
44026;SDS011;29696;55.698;37.460;2023-02-25T05:20:41;14.10;;;11.00;;
44026;SDS011;29696;55.698;37.460;2023-02-25T05:23:08;20.17;;;12.30;;
44026;SDS011;29696;55.698;37.460;2023-02-25T05:25:35;15.33;;;12.33;;
44026;SDS011;29696;55.698;37.460;2023-02-25T05:28:06;17.37;;;11.37;;
44026;SDS011;29696;55.698;37.460;2023-02-25T05:30:34;14.57;;;10.23;;
44026;SDS011;29696;55.698;37.460;2023-02-25T05:33:02;17.30;;;11.60;;
44026;SDS011;29696;55.698;37.460;2023-02-25T05:35:28;17.97;;;11.13;;
44026;SDS011;29696;55.698;37.460;2023-02-25T05:37:57;14.67;;;11.47;;
44026;SDS011;29696;55.698;37.460;2023-02-25T05:40:24;18.73;;;12.43;;
44026;SDS011;29696;55.698;37.460;2023-02-25T05:42:50;17.80;;;12.87;;
44026;SDS011;29696;55.698;37.460;2023-02-25T05:45:17;16.07;;;10.63;;
44026;SDS011;29696;55.698;37.460;2023-02-25T05:47:43;15.30;;;11.17;;
44026;SDS011;29696;55.698;37.460;2023-02-25T05:50:10;18.63;;;10.27;;
44026;SDS011;29696;55.698;37.460;2023-02-25T05:52:36;13.23;;;10.03;;
44026;SDS011;29696;55.698;37.460;2023-02-25T05:55:03;15.40;;;10.17;;
44026;SDS011;29696;55.698;37.460;2023-02-25T05:57:30;16.23;;;10.03;;
44026;SDS011;29696;55.698;37.460;2023-02-25T05:59:56;14.23;;;9.43;;
44026;SDS011;29696;55.698;37.460;2023-02-25T06:02:22;15.87;;;11.53;;
44026;SDS011;29696;55.698;37.460;2023-02-25T06:04:51;17.33;;;10.97;;
44026;SDS011;29696;55.698;37.460;2023-02-25T06:07:20;14.03;;;9.77;;
44026;SDS011;29696;55.698;37.460;2023-02-25T06:09:46;16.80;;;10.83;;
44026;SDS011;29696;55.698;37.460;2023-02-25T06:12:13;16.07;;;11.17;;
44026;SDS011;29696;55.698;37.460;2023-02-25T06:14:39;15.40;;;10.97;;
44026;SDS011;29696;55.698;37.460;2023-02-25T06:17:05;11.97;;;10.73;;
44026;SDS011;29696;55.698;37.460;2023-02-25T06:19:32;18.27;;;11.03;;
44026;SDS011;29696;55.698;37.460;2023-02-25T06:21:58;14.20;;;9.90;;
44026;SDS011;29696;55.698;37.460;2023-02-25T06:24:24;13.60;;;11.00;;
44026;SDS011;29696;55.698;37.460;2023-02-25T06:26:50;13.77;;;9.70;;
44026;SDS011;29696;55.698;37.460;2023-02-25T06:29:17;16.73;;;12.20;;
44026;SDS011;29696;55.698;37.460;2023-02-25T06:31:43;14.07;;;9.47;;
44026;SDS011;29696;55.698;37.460;2023-02-25T06:34:09;17.77;;;11.30;;
44026;SDS011;29696;55.698;37.460;2023-02-25T06:36:36;16.20;;;9.47;;
44026;SDS011;29696;55.698;37.460;2023-02-25T06:39:02;14.87;;;9.33;;
44026;SDS011;29696;55.698;37.460;2023-02-25T06:41:29;13.40;;;9.30;;
44026;SDS011;29696;55.698;37.460;2023-02-25T06:43:55;14.83;;;10.50;;
44026;SDS011;29696;55.698;37.460;2023-02-25T06:46:22;16.50;;;9.93;;
44026;SDS011;29696;55.698;37.460;2023-02-25T06:48:50;13.77;;;9.80;;
44026;SDS011;29696;55.698;37.460;2023-02-25T06:51:17;16.07;;;10.33;;
44026;SDS011;29696;55.698;37.460;2023-02-25T06:53:43;16.27;;;9.87;;
44026;SDS011;29696;55.698;37.460;2023-02-25T06:56:12;14.63;;;9.37;;
44026;SDS011;29696;55.698;37.460;2023-02-25T06:58:41;13.93;;;10.43;;
44026;SDS011;29696;55.698;37.460;2023-02-25T07:01:08;16.47;;;10.33;;
44026;SDS011;29696;55.698;37.460;2023-02-25T07:03:36;16.57;;;9.47;;
44026;SDS011;29696;55.698;37.460;2023-02-25T07:06:03;14.53;;;10.47;;
44026;SDS011;29696;55.698;37.460;2023-02-25T07:08:29;16.90;;;10.23;;
44026;SDS011;29696;55.698;37.460;2023-02-25T07:11:08;16.10;;;9.10;;
44026;SDS011;29696;55.698;37.460;2023-02-25T07:13:38;16.60;;;10.20;;
44026;SDS011;29696;55.698;37.460;2023-02-25T07:16:04;10.50;;;8.43;;
44026;SDS011;29696;55.698;37.460;2023-02-25T07:18:31;11.53;;;9.90;;
44026;SDS011;29696;55.698;37.460;2023-02-25T07:20:57;13.10;;;9.43;;
44026;SDS011;29696;55.698;37.460;2023-02-25T07:23:23;18.67;;;10.60;;
44026;SDS011;29696;55.698;37.460;2023-02-25T07:25:50;11.90;;;9.00;;
44026;SDS011;29696;55.698;37.460;2023-02-25T07:28:16;11.97;;;9.60;;
44026;SDS011;29696;55.698;37.460;2023-02-25T07:30:42;18.90;;;10.10;;
44026;SDS011;29696;55.698;37.460;2023-02-25T07:33:09;14.20;;;10.17;;
44026;SDS011;29696;55.698;37.460;2023-02-25T07:35:35;14.23;;;9.40;;
44026;SDS011;29696;55.698;37.460;2023-02-25T07:38:01;16.30;;;9.10;;
44026;SDS011;29696;55.698;37.460;2023-02-25T07:40:27;14.07;;;9.20;;
44026;SDS011;29696;55.698;37.460;2023-02-25T07:42:54;11.67;;;8.63;;
44026;SDS011;29696;55.698;37.460;2023-02-25T07:45:20;13.23;;;9.23;;
44026;SDS011;29696;55.698;37.460;2023-02-25T07:47:47;11.60;;;9.97;;
44026;SDS011;29696;55.698;37.460;2023-02-25T07:50:17;11.17;;;7.97;;
44026;SDS011;29696;55.698;37.460;2023-02-25T07:52:44;11.50;;;8.40;;
44026;SDS011;29696;55.698;37.460;2023-02-25T07:55:10;11.73;;;9.20;;
44026;SDS011;29696;55.698;37.460;2023-02-25T07:57:36;11.77;;;8.13;;
44026;SDS011;29696;55.698;37.460;2023-02-25T08:00:03;13.10;;;7.93;;
44026;SDS011;29696;55.698;37.460;2023-02-25T08:02:38;14.70;;;9.63;;
44026;SDS011;29696;55.698;37.460;2023-02-25T08:05:05;9.30;;;7.03;;
44026;SDS011;29696;55.698;37.460;2023-02-25T08:07:31;9.27;;;8.13;;
44026;SDS011;29696;55.698;37.460;2023-02-25T08:09:58;9.83;;;7.23;;
44026;SDS011;29696;55.698;37.460;2023-02-25T08:12:24;11.33;;;8.87;;
44026;SDS011;29696;55.698;37.460;2023-02-25T08:14:50;9.60;;;6.70;;
44026;SDS011;29696;55.698;37.460;2023-02-25T08:17:17;8.53;;;7.30;;
44026;SDS011;29696;55.698;37.460;2023-02-25T08:19:43;9.43;;;6.57;;
44026;SDS011;29696;55.698;37.460;2023-02-25T08:22:09;10.47;;;7.00;;
44026;SDS011;29696;55.698;37.460;2023-02-25T08:24:39;10.80;;;6.87;;
44026;SDS011;29696;55.698;37.460;2023-02-25T08:27:06;10.77;;;7.17;;
44026;SDS011;29696;55.698;37.460;2023-02-25T08:29:35;27.73;;;8.30;;
44026;SDS011;29696;55.698;37.460;2023-02-25T08:32:04;11.60;;;7.00;;
44026;SDS011;29696;55.698;37.460;2023-02-25T08:34:31;11.77;;;6.47;;
44026;SDS011;29696;55.698;37.460;2023-02-25T08:36:58;13.70;;;7.57;;
44026;SDS011;29696;55.698;37.460;2023-02-25T08:39:24;9.10;;;7.20;;
44026;SDS011;29696;55.698;37.460;2023-02-25T08:41:51;8.40;;;5.97;;
44026;SDS011;29696;55.698;37.460;2023-02-25T08:44:17;10.10;;;5.90;;
44026;SDS011;29696;55.698;37.460;2023-02-25T08:46:45;11.67;;;7.80;;
44026;SDS011;29696;55.698;37.460;2023-02-25T08:49:12;11.00;;;8.50;;
44026;SDS011;29696;55.698;37.460;2023-02-25T08:51:38;9.83;;;7.23;;
44026;SDS011;29696;55.698;37.460;2023-02-25T08:54:07;11.97;;;7.13;;
44026;SDS011;29696;55.698;37.460;2023-02-25T08:56:35;8.73;;;7.20;;
44026;SDS011;29696;55.698;37.460;2023-02-25T08:59:03;8.80;;;6.97;;
44026;SDS011;29696;55.698;37.460;2023-02-25T09:01:30;7.50;;;6.40;;
44026;SDS011;29696;55.698;37.460;2023-02-25T09:04:19;9.07;;;6.17;;
44026;SDS011;29696;55.698;37.460;2023-02-25T09:06:50;13.73;;;6.90;;
44026;SDS011;29696;55.698;37.460;2023-02-25T09:09:19;9.20;;;6.87;;
44026;SDS011;29696;55.698;37.460;2023-02-25T09:11:47;12.50;;;7.90;;
44026;SDS011;29696;55.698;37.460;2023-02-25T09:14:14;9.50;;;5.90;;
44026;SDS011;29696;55.698;37.460;2023-02-25T09:16:41;6.73;;;4.87;;
44026;SDS011;29696;55.698;37.460;2023-02-25T09:19:07;12.83;;;5.30;;
44026;SDS011;29696;55.698;37.460;2023-02-25T09:21:35;7.87;;;6.00;;
44026;SDS011;29696;55.698;37.460;2023-02-25T09:24:02;12.67;;;7.00;;
44026;SDS011;29696;55.698;37.460;2023-02-25T09:26:28;19.17;;;6.27;;
44026;SDS011;29696;55.698;37.460;2023-02-25T09:28:54;9.53;;;6.80;;
44026;SDS011;29696;55.698;37.460;2023-02-25T09:31:21;8.33;;;5.03;;
44026;SDS011;29696;55.698;37.460;2023-02-25T09:33:47;6.07;;;4.97;;
44026;SDS011;29696;55.698;37.460;2023-02-25T09:36:14;11.40;;;6.53;;
44026;SDS011;29696;55.698;37.460;2023-02-25T09:38:44;8.83;;;6.50;;
44026;SDS011;29696;55.698;37.460;2023-02-25T09:44:28;7.63;;;6.93;;
44026;SDS011;29696;55.698;37.460;2023-02-25T09:52:53;6.97;;;5.27;;
44026;SDS011;29696;55.698;37.460;2023-02-25T09:55:32;8.63;;;5.13;;
44026;SDS011;29696;55.698;37.460;2023-02-25T09:58:05;5.87;;;4.70;;
44026;SDS011;29696;55.698;37.460;2023-02-25T10:07:00;7.47;;;4.55;;
44026;SDS011;29696;55.698;37.460;2023-02-25T10:28:10;5.23;;;3.73;;
44026;SDS011;29696;55.698;37.460;2023-02-25T10:33:39;5.97;;;3.53;;
44026;SDS011;29696;55.698;37.460;2023-02-25T10:36:14;7.07;;;4.20;;
44026;SDS011;29696;55.698;37.460;2023-02-25T10:39:22;6.03;;;4.07;;
44026;SDS011;29696;55.698;37.460;2023-02-25T10:41:54;5.73;;;4.50;;
44026;SDS011;29696;55.698;37.460;2023-02-25T10:44:20;5.97;;;4.53;;
44026;SDS011;29696;55.698;37.460;2023-02-25T10:46:52;4.43;;;3.77;;
44026;SDS011;29696;55.698;37.460;2023-02-25T10:49:24;8.03;;;6.03;;
44026;SDS011;29696;55.698;37.460;2023-02-25T10:54:47;6.87;;;4.03;;
44026;SDS011;29696;55.698;37.460;2023-02-25T10:57:16;9.13;;;4.07;;
44026;SDS011;29696;55.698;37.460;2023-02-25T10:59:48;6.03;;;4.60;;
44026;SDS011;29696;55.698;37.460;2023-02-25T11:02:28;6.47;;;4.33;;
44026;SDS011;29696;55.698;37.460;2023-02-25T11:04:56;7.40;;;4.13;;
44026;SDS011;29696;55.698;37.460;2023-02-25T11:07:39;5.77;;;4.80;;
44026;SDS011;29696;55.698;37.460;2023-02-25T11:10:13;5.00;;;4.20;;
44026;SDS011;29696;55.698;37.460;2023-02-25T11:12:43;8.93;;;3.93;;
44026;SDS011;29696;55.698;37.460;2023-02-25T11:18:21;9.00;;;4.00;;
44026;SDS011;29696;55.698;37.460;2023-02-25T11:23:21;3.90;;;3.30;;
44026;SDS011;29696;55.698;37.460;2023-02-25T11:25:55;3.43;;;3.13;;
44026;SDS011;29696;55.698;37.460;2023-02-25T11:28:26;6.13;;;4.07;;
44026;SDS011;29696;55.698;37.460;2023-02-25T11:33:50;5.90;;;4.60;;
44026;SDS011;29696;55.698;37.460;2023-02-25T11:41:56;7.43;;;4.60;;
44026;SDS011;29696;55.698;37.460;2023-02-25T11:47:41;7.43;;;4.63;;
44026;SDS011;29696;55.698;37.460;2023-02-25T11:53:36;5.37;;;4.57;;
44026;SDS011;29696;55.698;37.460;2023-02-25T11:56:27;11.05;;;5.25;;
44026;SDS011;29696;55.698;37.460;2023-02-25T12:40:21;7.23;;;4.93;;
44026;SDS011;29696;55.698;37.460;2023-02-25T13:26:11;8.77;;;5.60;;
44026;SDS011;29696;55.698;37.460;2023-02-25T13:58:34;8.83;;;5.87;;
44026;SDS011;29696;55.698;37.460;2023-02-25T14:10:41;12.20;;;9.07;;
44026;SDS011;29696;55.698;37.460;2023-02-25T14:13:44;12.47;;;8.77;;
44026;SDS011;29696;55.698;37.460;2023-02-25T14:16:54;9.60;;;7.50;;
44026;SDS011;29696;55.698;37.460;2023-02-25T14:20:09;13.33;;;7.20;;
44026;SDS011;29696;55.698;37.460;2023-02-25T14:45:27;10.47;;;7.67;;
44026;SDS011;29696;55.698;37.460;2023-02-25T14:48:30;12.83;;;8.53;;
44026;SDS011;29696;55.698;37.460;2023-02-25T15:00:51;15.33;;;9.17;;
44026;SDS011;29696;55.698;37.460;2023-02-25T15:23:14;15.83;;;9.83;;
44026;SDS011;29696;55.698;37.460;2023-02-25T15:54:09;16.03;;;10.73;;
44026;SDS011;29696;55.698;37.460;2023-02-25T15:56:49;16.30;;;11.20;;
44026;SDS011;29696;55.698;37.460;2023-02-25T16:05:15;34.43;;;23.63;;
44026;SDS011;29696;55.698;37.460;2023-02-25T16:08:11;15.20;;;11.67;;
44026;SDS011;29696;55.698;37.460;2023-02-25T16:10:50;17.87;;;12.97;;
44026;SDS011;29696;55.698;37.460;2023-02-25T16:13:25;19.63;;;13.57;;
44026;SDS011;29696;55.698;37.460;2023-02-25T16:15:54;16.77;;;11.50;;
44026;SDS011;29696;55.698;37.460;2023-02-25T16:18:31;21.40;;;14.73;;
44026;SDS011;29696;55.698;37.460;2023-02-25T16:21:12;16.90;;;11.37;;
44026;SDS011;29696;55.698;37.460;2023-02-25T16:23:44;18.83;;;11.07;;
44026;SDS011;29696;55.698;37.460;2023-02-25T16:29:17;17.00;;;12.00;;
44026;SDS011;29696;55.698;37.460;2023-02-25T16:35:40;15.90;;;11.70;;
44026;SDS011;29696;55.698;37.460;2023-02-25T16:41:20;13.27;;;10.50;;
44026;SDS011;29696;55.698;37.460;2023-02-25T16:43:47;17.33;;;10.73;;
44026;SDS011;29696;55.698;37.460;2023-02-25T16:46:15;17.03;;;12.40;;
44026;SDS011;29696;55.698;37.460;2023-02-25T16:51:42;16.50;;;12.17;;
44026;SDS011;29696;55.698;37.460;2023-02-25T16:54:15;15.43;;;11.60;;
44026;SDS011;29696;55.698;37.460;2023-02-25T16:56:44;21.43;;;14.00;;
44026;SDS011;29696;55.698;37.460;2023-02-25T17:02:22;21.47;;;12.23;;
44026;SDS011;29696;55.698;37.460;2023-02-25T17:04:52;19.50;;;13.03;;
44026;SDS011;29696;55.698;37.460;2023-02-25T17:10:10;18.47;;;14.43;;
44026;SDS011;29696;55.698;37.460;2023-02-25T17:12:50;18.93;;;13.93;;
44026;SDS011;29696;55.698;37.460;2023-02-25T17:15:27;24.20;;;13.57;;
44026;SDS011;29696;55.698;37.460;2023-02-25T17:21:18;19.53;;;11.80;;
44026;SDS011;29696;55.698;37.460;2023-02-25T17:24:12;17.77;;;12.77;;
44026;SDS011;29696;55.698;37.460;2023-02-25T17:29:13;17.33;;;12.87;;
44026;SDS011;29696;55.698;37.460;2023-02-25T17:31:42;15.93;;;11.50;;
44026;SDS011;29696;55.698;37.460;2023-02-25T17:34:13;14.80;;;11.40;;
44026;SDS011;29696;55.698;37.460;2023-02-25T17:36:42;19.10;;;12.40;;
44026;SDS011;29696;55.698;37.460;2023-02-25T17:39:17;21.70;;;12.20;;
44026;SDS011;29696;55.698;37.460;2023-02-25T17:41:45;16.27;;;14.03;;
44026;SDS011;29696;55.698;37.460;2023-02-25T17:47:25;19.23;;;14.90;;
44026;SDS011;29696;55.698;37.460;2023-02-25T17:49:53;23.93;;;14.20;;
44026;SDS011;29696;55.698;37.460;2023-02-25T17:55:30;23.53;;;14.70;;
44026;SDS011;29696;55.698;37.460;2023-02-25T17:58:00;18.50;;;12.07;;
44026;SDS011;29696;55.698;37.460;2023-02-25T18:00:29;20.43;;;14.93;;
44026;SDS011;29696;55.698;37.460;2023-02-25T18:08:26;25.73;;;14.83;;
44026;SDS011;29696;55.698;37.460;2023-02-25T18:11:00;22.40;;;15.50;;
44026;SDS011;29696;55.698;37.460;2023-02-25T18:13:47;23.53;;;16.17;;
44026;SDS011;29696;55.698;37.460;2023-02-25T18:19:25;30.23;;;17.03;;
44026;SDS011;29696;55.698;37.460;2023-02-25T18:22:25;25.47;;;17.97;;
44026;SDS011;29696;55.698;37.460;2023-02-25T18:28:18;32.70;;;16.67;;
44026;SDS011;29696;55.698;37.460;2023-02-25T18:30:48;25.63;;;15.23;;
44026;SDS011;29696;55.698;37.460;2023-02-25T18:33:16;29.53;;;18.13;;
44026;SDS011;29696;55.698;37.460;2023-02-25T18:35:43;29.13;;;18.00;;
44026;SDS011;29696;55.698;37.460;2023-02-25T18:38:15;26.90;;;17.40;;
44026;SDS011;29696;55.698;37.460;2023-02-25T18:40:43;31.20;;;19.20;;
44026;SDS011;29696;55.698;37.460;2023-02-25T18:43:13;35.33;;;20.03;;
44026;SDS011;29696;55.698;37.460;2023-02-25T18:45:41;30.80;;;20.10;;
44026;SDS011;29696;55.698;37.460;2023-02-25T18:48:08;35.80;;;20.53;;
44026;SDS011;29696;55.698;37.460;2023-02-25T18:50:35;23.50;;;17.67;;
44026;SDS011;29696;55.698;37.460;2023-02-25T18:53:05;27.77;;;17.90;;
44026;SDS011;29696;55.698;37.460;2023-02-25T18:55:31;30.37;;;20.30;;
44026;SDS011;29696;55.698;37.460;2023-02-25T18:57:58;29.03;;;18.60;;
44026;SDS011;29696;55.698;37.460;2023-02-25T19:00:25;33.50;;;21.30;;
44026;SDS011;29696;55.698;37.460;2023-02-25T19:02:53;34.43;;;21.87;;
44026;SDS011;29696;55.698;37.460;2023-02-25T19:05:25;28.10;;;20.17;;
44026;SDS011;29696;55.698;37.460;2023-02-25T19:07:52;33.63;;;19.37;;
44026;SDS011;29696;55.698;37.460;2023-02-25T19:10:23;35.23;;;22.07;;
44026;SDS011;29696;55.698;37.460;2023-02-25T19:12:53;35.17;;;23.67;;
44026;SDS011;29696;55.698;37.460;2023-02-25T19:15:30;31.30;;;18.53;;
44026;SDS011;29696;55.698;37.460;2023-02-25T19:17:57;32.07;;;19.07;;
44026;SDS011;29696;55.698;37.460;2023-02-25T19:20:23;32.90;;;20.60;;
44026;SDS011;29696;55.698;37.460;2023-02-25T19:22:51;31.70;;;21.17;;
44026;SDS011;29696;55.698;37.460;2023-02-25T19:25:22;32.70;;;19.40;;
44026;SDS011;29696;55.698;37.460;2023-02-25T19:27:51;36.37;;;21.67;;
44026;SDS011;29696;55.698;37.460;2023-02-25T19:30:21;33.07;;;20.70;;
44026;SDS011;29696;55.698;37.460;2023-02-25T19:32:49;30.93;;;20.67;;
44026;SDS011;29696;55.698;37.460;2023-02-25T19:35:16;37.23;;;20.77;;
44026;SDS011;29696;55.698;37.460;2023-02-25T19:37:42;28.40;;;19.67;;
44026;SDS011;29696;55.698;37.460;2023-02-25T19:40:11;28.13;;;19.77;;
44026;SDS011;29696;55.698;37.460;2023-02-25T19:42:40;24.23;;;17.37;;
44026;SDS011;29696;55.698;37.460;2023-02-25T19:45:08;33.50;;;19.17;;
44026;SDS011;29696;55.698;37.460;2023-02-25T19:47:38;28.77;;;18.80;;
44026;SDS011;29696;55.698;37.460;2023-02-25T19:50:04;30.13;;;19.83;;
44026;SDS011;29696;55.698;37.460;2023-02-25T19:52:32;41.07;;;27.17;;
44026;SDS011;29696;55.698;37.460;2023-02-25T19:54:59;30.57;;;17.90;;
44026;SDS011;29696;55.698;37.460;2023-02-25T19:57:25;26.53;;;18.13;;
44026;SDS011;29696;55.698;37.460;2023-02-25T19:59:52;34.00;;;18.83;;
44026;SDS011;29696;55.698;37.460;2023-02-25T20:02:18;22.23;;;15.13;;
44026;SDS011;29696;55.698;37.460;2023-02-25T20:04:44;26.30;;;16.97;;
44026;SDS011;29696;55.698;37.460;2023-02-25T20:07:11;27.03;;;16.97;;
44026;SDS011;29696;55.698;37.460;2023-02-25T20:09:37;27.83;;;18.73;;
44026;SDS011;29696;55.698;37.460;2023-02-25T20:12:04;23.97;;;17.17;;
44026;SDS011;29696;55.698;37.460;2023-02-25T20:14:30;23.83;;;16.60;;
44026;SDS011;29696;55.698;37.460;2023-02-25T20:16:58;29.50;;;15.50;;
44026;SDS011;29696;55.698;37.460;2023-02-25T20:19:26;25.40;;;16.07;;
44026;SDS011;29696;55.698;37.460;2023-02-25T20:21:55;24.77;;;15.50;;
44026;SDS011;29696;55.698;37.460;2023-02-25T20:24:22;31.03;;;17.40;;